createdAt,value
2023-01-07T00:01:41.666Z,62.30
2023-01-07T00:04:10.509Z,62.60
2023-01-07T00:06:38.124Z,62.30
2023-01-07T00:09:05.667Z,62.30
2023-01-07T00:11:34.415Z,62.20
2023-01-07T00:14:01.758Z,62.30
2023-01-07T00:16:30.056Z,62.20
2023-01-07T00:18:57.530Z,62.30
2023-01-07T00:21:25.351Z,62.30
2023-01-07T00:23:56.298Z,62.30
2023-01-07T00:26:24.171Z,62.30
2023-01-07T00:28:51.963Z,62.30
2023-01-07T00:31:20.310Z,62.90
2023-01-07T00:33:59.595Z,62.40
2023-01-07T00:36:27.771Z,62.40
2023-01-07T00:38:55.813Z,62.50
2023-01-07T00:41:22.676Z,62.30
2023-01-07T00:43:49.469Z,62.40
2023-01-07T00:46:16.290Z,62.70
2023-01-07T00:48:43.095Z,62.60
2023-01-07T00:51:10.537Z,62.50
2023-01-07T00:53:37.320Z,62.70
2023-01-07T00:56:04.259Z,62.70
2023-01-07T00:58:31.456Z,62.70
2023-01-07T01:00:59.362Z,62.70
2023-01-07T01:03:27.247Z,62.60
2023-01-07T01:05:54.153Z,62.50
2023-01-07T01:08:21.499Z,62.70
2023-01-07T01:10:48.274Z,62.90
2023-01-07T01:13:18.293Z,62.90
2023-01-07T01:15:45.983Z,62.90
2023-01-07T01:18:12.943Z,63.10
2023-01-07T01:20:40.134Z,63.20
2023-01-07T01:23:07.156Z,63.30
2023-01-07T01:25:33.935Z,63.50
2023-01-07T01:28:00.683Z,63.10
2023-01-07T01:30:27.512Z,63.10
2023-01-07T01:32:54.273Z,63.20
2023-01-07T01:35:21.059Z,63.00
2023-01-07T01:37:47.777Z,63.10
2023-01-07T01:40:14.588Z,63.20
2023-01-07T01:42:41.398Z,62.90
2023-01-07T01:45:10.333Z,63.30
2023-01-07T01:47:39.888Z,63.30
2023-01-07T01:50:10.412Z,63.30
2023-01-07T01:52:44.207Z,63.60
2023-01-07T01:55:13.685Z,63.20
2023-01-07T01:57:41.009Z,63.40
2023-01-07T02:00:08.120Z,63.40
2023-01-07T02:02:39.744Z,63.70
2023-01-07T02:05:06.974Z,63.70
2023-01-07T02:07:34.847Z,63.30
2023-01-07T02:10:10.872Z,63.50
2023-01-07T02:12:43.121Z,63.60
2023-01-07T02:15:09.825Z,63.70
2023-01-07T02:17:42.653Z,63.60
2023-01-07T02:20:15.616Z,63.60
2023-01-07T02:22:42.357Z,63.60
2023-01-07T02:25:15.203Z,63.60
2023-01-07T02:28:00.665Z,63.80
2023-01-07T02:30:42.847Z,63.80
2023-01-07T02:33:27.931Z,63.50
2023-01-07T02:35:54.625Z,63.70
2023-01-07T02:38:33.996Z,63.70
2023-01-07T02:41:11.897Z,63.80
2023-01-07T02:43:50.841Z,64.10
2023-01-07T02:46:28.326Z,63.80
2023-01-07T02:48:58.081Z,64.20
2023-01-07T02:51:32.267Z,63.60
2023-01-07T02:53:59.155Z,64.20
2023-01-07T02:56:40.982Z,63.80
2023-01-07T02:59:28.003Z,64.10
2023-01-07T03:02:08.893Z,64.00
2023-01-07T03:04:49.547Z,63.80
2023-01-07T03:07:16.236Z,63.80
2023-01-07T03:09:54.930Z,63.90
2023-01-07T03:12:21.662Z,63.80
2023-01-07T03:14:50.934Z,63.70
2023-01-07T03:17:20.771Z,64.00
2023-01-07T03:19:50.898Z,64.20
2023-01-07T03:22:18.998Z,63.70
2023-01-07T03:24:46.699Z,63.40
2023-01-07T03:27:14.289Z,63.80
2023-01-07T03:29:41.690Z,63.90
2023-01-07T03:32:37.612Z,64.10
2023-01-07T03:35:04.672Z,64.00
2023-01-07T03:37:32.501Z,64.10
2023-01-07T03:39:59.996Z,64.10
2023-01-07T03:42:42.819Z,64.10
2023-01-07T03:45:14.499Z,64.30
2023-01-07T03:47:43.670Z,64.90
2023-01-07T03:50:10.781Z,64.20
2023-01-07T03:52:37.637Z,64.10
2023-01-07T03:55:05.107Z,64.30
2023-01-07T03:57:32.583Z,64.50
2023-01-07T03:59:59.476Z,64.80
2023-01-07T04:02:26.518Z,64.70
2023-01-07T04:04:53.260Z,64.60
2023-01-07T04:07:20.036Z,65.00
2023-01-07T04:09:47.344Z,65.30
2023-01-07T04:12:14.349Z,65.50
2023-01-07T04:14:41.084Z,65.70
2023-01-07T04:17:07.901Z,65.90
2023-01-07T04:19:34.746Z,65.80
2023-01-07T04:22:01.476Z,65.80
2023-01-07T04:24:28.247Z,65.90
2023-01-07T04:26:55.028Z,65.90
2023-01-07T04:29:21.782Z,65.70
2023-01-07T04:31:49.074Z,65.90
2023-01-07T04:34:15.965Z,65.20
2023-01-07T04:36:42.697Z,65.20
2023-01-07T04:39:09.507Z,65.40
2023-01-07T04:41:36.297Z,65.80
2023-01-07T04:44:03.014Z,66.10
2023-01-07T04:46:30.013Z,66.20
2023-01-07T04:48:56.993Z,66.40
2023-01-07T04:51:23.737Z,66.30
2023-01-07T04:53:50.500Z,66.20
2023-01-07T04:56:17.377Z,66.50
2023-01-07T04:58:44.152Z,66.30
2023-01-07T05:01:11.624Z,66.10
2023-01-07T05:03:38.541Z,66.70
2023-01-07T05:06:05.374Z,66.50
2023-01-07T05:08:32.379Z,66.50
2023-01-07T05:11:00.044Z,66.70
2023-01-07T05:13:26.923Z,66.90
2023-01-07T05:15:53.651Z,66.30
2023-01-07T05:18:20.490Z,66.40
2023-01-07T05:20:48.349Z,66.40
2023-01-07T05:23:15.229Z,66.50
2023-01-07T05:25:42.258Z,67.00
2023-01-07T05:28:09.714Z,66.60
2023-01-07T05:30:36.774Z,66.60
2023-01-07T05:33:07.281Z,66.50
2023-01-07T05:35:34.794Z,66.90
2023-01-07T05:38:01.552Z,67.20
2023-01-07T05:40:28.301Z,67.20
2023-01-07T05:42:55.388Z,67.20
2023-01-07T05:45:22.176Z,67.30
2023-01-07T05:47:49.276Z,67.30
2023-01-07T05:50:16.155Z,67.00
2023-01-07T05:52:42.907Z,67.90
2023-01-07T05:55:09.666Z,67.20
2023-01-07T05:57:36.399Z,67.50
2023-01-07T06:00:04.177Z,67.00
2023-01-07T06:02:30.961Z,67.20
2023-01-07T06:04:57.787Z,67.30
2023-01-07T06:07:24.558Z,67.70
2023-01-07T06:09:51.383Z,67.50
2023-01-07T06:12:18.108Z,67.80
2023-01-07T06:14:44.810Z,67.80
2023-01-07T06:17:11.613Z,66.40
2023-01-07T06:19:38.428Z,67.10
2023-01-07T06:22:05.201Z,67.40
2023-01-07T06:24:31.938Z,67.00
2023-01-07T06:26:58.614Z,67.20
2023-01-07T06:29:25.419Z,67.40
2023-01-07T06:31:52.310Z,67.50
2023-01-07T06:34:19.028Z,67.60
2023-01-07T06:36:45.787Z,67.30
2023-01-07T06:39:12.568Z,67.50
2023-01-07T06:41:39.373Z,67.40
2023-01-07T06:44:06.251Z,67.60
2023-01-07T06:46:33.165Z,67.50
2023-01-07T06:48:59.970Z,67.60
2023-01-07T06:51:26.708Z,67.70
2023-01-07T06:53:53.455Z,67.80
2023-01-07T06:56:20.206Z,67.80
2023-01-07T06:58:46.994Z,67.80
2023-01-07T07:01:13.799Z,67.70
2023-01-07T07:03:40.687Z,67.70
2023-01-07T07:06:07.784Z,67.60
2023-01-07T07:08:34.666Z,67.90
2023-01-07T07:11:01.413Z,68.00
2023-01-07T07:13:28.169Z,67.80
2023-01-07T07:15:54.924Z,68.10
2023-01-07T07:18:21.748Z,68.30
2023-01-07T07:20:48.795Z,68.70
2023-01-07T07:23:15.571Z,68.40
2023-01-07T07:25:42.733Z,68.60
2023-01-07T07:28:09.808Z,68.60
2023-01-07T07:30:45.672Z,69.20
